createdAt,value
2018-06-08T00:00:47.075Z,52.90
2018-06-08T00:01:47.073Z,54.60
2018-06-08T00:02:46.867Z,55.20
2018-06-08T00:03:46.899Z,55.90
2018-06-08T00:04:46.875Z,55.30
2018-06-08T00:05:46.890Z,55.50
2018-06-08T00:06:46.880Z,56.70
2018-06-08T00:07:46.897Z,51.40
2018-06-08T00:08:46.886Z,51.50
2018-06-08T00:09:46.895Z,50.70
2018-06-08T00:10:47.097Z,50.70
2018-06-08T00:11:46.899Z,49.30
2018-06-08T00:12:46.902Z,49.90
2018-06-08T00:13:47.105Z,50.00
2018-06-08T00:14:46.917Z,50.80
2018-06-08T00:15:46.918Z,49.90
2018-06-08T00:16:46.913Z,49.10
2018-06-08T00:17:46.914Z,49.20
2018-06-08T00:18:46.920Z,48.50
2018-06-08T00:19:46.932Z,50.00
2018-06-08T00:20:47.130Z,49.60
2018-06-08T00:21:47.133Z,50.30
2018-06-08T00:22:47.138Z,46.30
2018-06-08T00:23:46.937Z,49.70
2018-06-08T00:24:46.956Z,48.00
2018-06-08T00:25:46.955Z,48.70
2018-06-08T00:26:46.947Z,49.70
2018-06-08T00:27:46.949Z,47.80
2018-06-08T00:28:46.973Z,48.60
2018-06-08T00:29:47.011Z,50.30
2018-06-08T00:30:47.175Z,50.20
2018-06-08T00:31:47.176Z,49.30
2018-06-08T00:32:47.170Z,50.90
2018-06-08T00:33:46.987Z,50.70
2018-06-08T00:34:46.998Z,50.50
2018-06-08T00:35:46.979Z,49.80
2018-06-08T00:36:46.987Z,50.40
2018-06-08T00:37:46.985Z,48.40
2018-06-08T00:38:46.988Z,49.50
2018-06-08T00:39:47.193Z,50.60
2018-06-08T00:40:47.010Z,48.80
2018-06-08T00:41:47.013Z,48.90
2018-06-08T00:42:47.008Z,48.80
2018-06-08T00:43:47.021Z,50.70
2018-06-08T00:44:47.227Z,49.20
2018-06-08T00:45:47.012Z,49.10
2018-06-08T00:46:47.035Z,49.70
2018-06-08T00:47:47.017Z,51.70
2018-06-08T00:48:47.238Z,50.60
2018-06-08T00:49:47.038Z,50.20
2018-06-08T00:50:47.057Z,48.50
2018-06-08T00:51:47.032Z,50.40
2018-06-08T00:52:47.050Z,50.10
2018-06-08T00:53:47.039Z,49.20
2018-06-08T00:54:47.247Z,51.20
2018-06-08T00:55:47.046Z,52.50
2018-06-08T00:56:47.064Z,52.00
2018-06-08T00:57:47.269Z,48.70
2018-06-08T00:58:47.270Z,50.70
2018-06-08T00:59:47.061Z,54.10
2018-06-08T01:00:47.064Z,51.10
2018-06-08T01:01:47.285Z,49.60
2018-06-08T01:02:47.083Z,53.10
2018-06-08T01:03:47.073Z,53.00
2018-06-08T01:04:47.088Z,54.10
2018-06-08T01:05:47.283Z,54.00
2018-06-08T01:06:47.297Z,51.20
2018-06-08T01:07:47.289Z,54.00
2018-06-08T01:08:47.089Z,52.60
2018-06-08T01:09:47.310Z,51.70
2018-06-08T01:10:47.094Z,52.80
2018-06-08T01:11:47.100Z,54.70
2018-06-08T01:12:47.122Z,52.10
2018-06-08T01:13:47.131Z,50.60
2018-06-08T01:14:47.109Z,49.20
2018-06-08T01:15:47.115Z,49.60
2018-06-08T01:16:47.133Z,51.00
2018-06-08T01:17:47.134Z,52.40
2018-06-08T01:18:47.125Z,49.60
2018-06-08T01:19:47.126Z,52.50
2018-06-08T01:20:47.151Z,53.10
2018-06-08T01:21:47.336Z,54.40
2018-06-08T01:22:47.210Z,56.00
2018-06-08T01:23:47.358Z,55.00
2018-06-08T01:24:47.143Z,54.30
2018-06-08T01:25:47.149Z,51.70
2018-06-08T01:26:47.148Z,54.40
2018-06-08T01:27:47.164Z,55.00
2018-06-08T01:28:47.157Z,54.30
2018-06-08T01:29:47.172Z,51.10
2018-06-08T01:30:47.188Z,51.20
2018-06-08T01:31:47.170Z,48.70
2018-06-08T01:32:47.173Z,51.50
2018-06-08T01:33:47.172Z,56.10
2018-06-08T01:34:47.381Z,56.50
2018-06-08T01:35:47.179Z,51.60
2018-06-08T01:36:47.194Z,54.60
2018-06-08T01:37:47.477Z,56.90
2018-06-08T01:38:47.190Z,53.40
2018-06-08T01:39:47.396Z,51.80
2018-06-08T01:40:47.196Z,51.00
2018-06-08T01:41:47.208Z,51.00
2018-06-08T01:42:47.204Z,51.90
2018-06-08T01:43:47.418Z,55.60
2018-06-08T01:44:47.209Z,56.70
2018-06-08T01:45:47.414Z,56.10
2018-06-08T01:46:47.435Z,52.10
2018-06-08T01:47:47.444Z,53.40
2018-06-08T01:48:47.239Z,55.10
2018-06-08T01:49:47.451Z,54.10
2018-06-08T01:50:47.432Z,54.70
2018-06-08T01:51:47.248Z,55.40
2018-06-08T01:52:47.239Z,55.50
2018-06-08T01:53:47.240Z,54.90
2018-06-08T01:54:47.243Z,53.80
2018-06-08T01:55:47.456Z,52.70
2018-06-08T01:56:47.249Z,53.50
2018-06-08T01:57:47.250Z,51.30
2018-06-08T01:58:47.256Z,52.70
2018-06-08T01:59:47.267Z,51.90
2018-06-08T02:00:47.263Z,52.50
2018-06-08T02:01:47.483Z,50.80
2018-06-08T02:02:47.279Z,52.60
2018-06-08T02:03:47.471Z,52.80
2018-06-08T02:04:47.296Z,54.50
2018-06-08T02:05:47.502Z,53.80
2018-06-08T02:06:47.294Z,55.30
2018-06-08T02:07:47.282Z,50.70
2018-06-08T02:08:47.300Z,51.50
2018-06-08T02:09:47.491Z,52.50
2018-06-08T02:10:47.510Z,50.80
2018-06-08T02:11:47.305Z,50.80
2018-06-08T02:12:47.297Z,51.20
2018-06-08T02:13:47.315Z,52.20
2018-06-08T02:14:47.302Z,52.40
2018-06-08T02:15:47.325Z,48.60
2018-06-08T02:16:47.527Z,51.10
2018-06-08T02:17:47.314Z,53.90
2018-06-08T02:18:47.532Z,51.80
2018-06-08T02:19:47.321Z,50.70
2018-06-08T02:20:47.325Z,50.50
2018-06-08T02:21:47.337Z,53.00
2018-06-08T02:22:47.336Z,53.30
2018-06-08T02:23:47.336Z,50.70
2018-06-08T02:24:47.336Z,54.30
2018-06-08T02:25:47.371Z,52.60
2018-06-08T02:26:47.566Z,50.80
2018-06-08T02:27:47.557Z,50.20
2018-06-08T02:28:47.359Z,50.30
2018-06-08T02:29:47.355Z,52.70
2018-06-08T02:30:47.361Z,52.70
2018-06-08T02:31:47.570Z,53.10
2018-06-08T02:32:47.373Z,53.90
2018-06-08T02:33:47.376Z,49.60
2018-06-08T02:34:47.392Z,50.80
2018-06-08T02:35:47.384Z,51.60
2018-06-08T02:36:47.377Z,50.90
2018-06-08T02:37:47.401Z,51.50
2018-06-08T02:38:47.393Z,51.50
2018-06-08T02:39:47.405Z,50.00
2018-06-08T02:40:47.401Z,49.70
2018-06-08T02:41:47.392Z,50.30
2018-06-08T02:42:47.595Z,51.70
2018-06-08T02:43:47.413Z,54.20
2018-06-08T02:44:47.425Z,53.90
2018-06-08T02:45:47.604Z,55.90
2018-06-08T02:46:47.406Z,58.10
2018-06-08T02:47:47.613Z,58.70
2018-06-08T02:48:47.428Z,58.00
2018-06-08T02:49:47.418Z,58.00
2018-06-08T02:50:47.422Z,60.00
2018-06-08T02:51:47.425Z,59.20
2018-06-08T02:52:47.428Z,61.20
2018-06-08T02:53:47.456Z,61.10
2018-06-08T02:54:47.647Z,60.30
2018-06-08T02:55:47.437Z,61.30
2018-06-08T02:56:47.444Z,61.20
2018-06-08T02:57:47.442Z,58.50
2018-06-08T02:58:47.459Z,58.10
2018-06-08T02:59:47.474Z,59.00
2018-06-08T03:00:47.456Z,58.90
2018-06-08T03:01:47.457Z,55.00
2018-06-08T03:02:47.459Z,55.80
2018-06-08T03:03:47.487Z,58.20
2018-06-08T03:04:47.480Z,56.00
2018-06-08T03:05:47.474Z,58.90
2018-06-08T03:06:47.471Z,59.50
2018-06-08T03:07:47.495Z,58.50
2018-06-08T03:08:47.500Z,59.40
2018-06-08T03:09:47.494Z,58.40
2018-06-08T03:10:47.496Z,57.40
2018-06-08T03:11:47.489Z,58.20
2018-06-08T03:12:47.504Z,57.90
2018-06-08T03:13:47.496Z,57.10
2018-06-08T03:14:47.505Z,56.70
2018-06-08T03:15:47.502Z,58.30
2018-06-08T03:16:47.504Z,56.60
2018-06-08T03:17:47.510Z,55.70
2018-06-08T03:18:47.517Z,56.10
2018-06-08T03:19:47.516Z,57.20
2018-06-08T03:20:47.517Z,55.30
2018-06-08T03:21:47.722Z,53.30
2018-06-08T03:22:47.736Z,54.70
2018-06-08T03:23:47.532Z,57.20
2018-06-08T03:24:47.532Z,56.10
2018-06-08T03:25:47.546Z,56.20
2018-06-08T03:26:47.537Z,57.10
2018-06-08T03:27:47.742Z,57.80
2018-06-08T03:28:47.544Z,56.60
2018-06-08T03:29:47.560Z,57.20
2018-06-08T03:30:47.561Z,57.50
2018-06-08T03:31:47.574Z,59.00
2018-06-08T03:32:47.568Z,59.00
2018-06-08T03:33:47.586Z,58.20
2018-06-08T03:34:47.560Z,58.70
2018-06-08T03:35:47.794Z,57.70
2018-06-08T03:36:47.592Z,55.30
2018-06-08T03:37:47.570Z,56.80
2018-06-08T03:38:47.589Z,57.20
2018-06-08T03:39:47.793Z,58.10
2018-06-08T03:40:47.578Z,55.90
2018-06-08T03:41:47.583Z,57.60
2018-06-08T03:42:47.789Z,57.20
2018-06-08T03:43:47.588Z,56.50
2018-06-08T03:44:47.623Z,58.10
2018-06-08T03:45:47.610Z,58.30
2018-06-08T03:46:47.799Z,57.90
2018-06-08T03:47:47.605Z,54.50
2018-06-08T03:48:47.607Z,56.70
2018-06-08T03:49:47.609Z,57.20
2018-06-08T03:50:47.813Z,58.60
2018-06-08T03:51:47.626Z,61.20
2018-06-08T03:52:47.629Z,60.00
2018-06-08T03:53:47.823Z,63.20
2018-06-08T03:54:47.837Z,62.40
2018-06-08T03:55:47.829Z,61.80
2018-06-08T03:56:47.645Z,62.00
2018-06-08T03:57:47.634Z,60.60
2018-06-08T03:58:47.635Z,58.80
2018-06-08T03:59:47.842Z,59.40
2018-06-08T04:00:47.642Z,59.90
2018-06-08T04:01:47.858Z,57.70
2018-06-08T04:02:47.660Z,58.50
2018-06-08T04:03:47.655Z,63.00
2018-06-08T04:04:47.655Z,60.60
2018-06-08T04:05:47.656Z,60.10
2018-06-08T04:06:47.660Z,61.30
2018-06-08T04:07:47.663Z,58.70
2018-06-08T04:08:47.665Z,59.20
2018-06-08T04:09:47.681Z,65.20
2018-06-08T04:10:47.875Z,63.00
2018-06-08T04:11:47.674Z,64.80
2018-06-08T04:12:47.678Z,62.30
2018-06-08T04:13:47.695Z,66.30
2018-06-08T04:14:47.695Z,66.00
2018-06-08T04:15:47.691Z,66.70
2018-06-08T04:16:47.694Z,63.90
2018-06-08T04:17:47.911Z,68.30
2018-06-08T04:18:47.712Z,68.00
2018-06-08T04:19:47.903Z,65.60
2018-06-08T04:20:47.714Z,66.80
2018-06-08T04:21:47.709Z,66.80
2018-06-08T04:22:47.712Z,66.30
2018-06-08T04:23:47.714Z,65.10
2018-06-08T04:24:47.920Z,66.60
2018-06-08T04:25:47.728Z,68.00
2018-06-08T04:26:47.733Z,65.10
2018-06-08T04:27:47.728Z,65.50
2018-06-08T04:28:47.749Z,66.00
2018-06-08T04:29:47.729Z,66.50
2018-06-08T04:30:47.743Z,66.80
2018-06-08T04:31:47.767Z,63.20
2018-06-08T04:32:47.816Z,59.50
2018-06-08T04:33:47.755Z,66.80
2018-06-08T04:34:47.744Z,72.40
2018-06-08T04:35:47.768Z,69.40
2018-06-08T04:36:47.771Z,70.00
2018-06-08T04:37:47.769Z,70.70
2018-06-08T04:38:47.787Z,67.10
2018-06-08T04:39:47.765Z,68.30
2018-06-08T04:40:47.971Z,68.20
2018-06-08T04:41:47.793Z,68.70
2018-06-08T04:42:48.001Z,67.60
2018-06-08T04:43:47.778Z,63.10
2018-06-08T04:44:47.995Z,64.20
2018-06-08T04:45:47.792Z,72.10
2018-06-08T04:46:47.986Z,68.70
2018-06-08T04:47:47.789Z,74.30
2018-06-08T04:48:47.816Z,74.00
2018-06-08T04:49:47.795Z,72.40
2018-06-08T04:50:47.802Z,71.50
2018-06-08T04:51:47.802Z,71.90
2018-06-08T04:52:47.802Z,75.10
2018-06-08T04:53:47.832Z,70.90
2018-06-08T04:54:48.023Z,70.60
2018-06-08T04:55:47.830Z,70.70
2018-06-08T04:56:47.816Z,71.60
2018-06-08T04:57:47.820Z,70.00
2018-06-08T04:58:48.025Z,69.30
2018-06-08T04:59:47.838Z,72.50
2018-06-08T05:00:48.032Z,70.70
2018-06-08T05:01:47.830Z,70.70
2018-06-08T05:02:48.038Z,72.20
2018-06-08T05:03:47.836Z,69.40
2018-06-08T05:04:47.850Z,72.10
2018-06-08T05:05:47.858Z,73.60
2018-06-08T05:06:47.849Z,75.90
2018-06-08T05:07:47.864Z,71.70
2018-06-08T05:08:47.869Z,70.60
2018-06-08T05:09:47.859Z,71.00
2018-06-08T05:10:47.860Z,66.20
2018-06-08T05:11:47.866Z,66.60
2018-06-08T05:12:48.104Z,70.90
2018-06-08T05:13:47.885Z,65.70
2018-06-08T05:14:47.894Z,68.30
2018-06-08T05:15:47.888Z,70.30
2018-06-08T05:16:47.902Z,66.90
2018-06-08T05:17:47.910Z,68.70
2018-06-08T05:18:47.900Z,66.90
2018-06-08T05:19:47.899Z,66.30
2018-06-08T05:20:48.115Z,68.80
2018-06-08T05:21:48.112Z,66.20
2018-06-08T05:22:47.894Z,67.10
2018-06-08T05:23:47.898Z,74.20
2018-06-08T05:24:47.918Z,71.70
2018-06-08T05:25:47.905Z,78.30
2018-06-08T05:26:48.110Z,77.70
2018-06-08T05:27:47.913Z,77.10
2018-06-08T05:28:47.915Z,75.00
2018-06-08T05:29:47.919Z,76.40
2018-06-08T05:30:48.134Z,73.80
2018-06-08T05:31:48.186Z,71.60
2018-06-08T05:32:47.939Z,70.30
2018-06-08T05:33:47.939Z,69.30
2018-06-08T05:34:47.932Z,68.90
2018-06-08T05:35:47.937Z,64.70
2018-06-08T05:36:47.949Z,68.10
2018-06-08T05:37:47.943Z,67.00
2018-06-08T05:38:47.948Z,63.80
2018-06-08T05:39:47.959Z,61.20
2018-06-08T05:40:48.158Z,66.30
2018-06-08T05:41:47.983Z,70.50
2018-06-08T05:42:47.971Z,72.70
2018-06-08T05:43:47.974Z,71.90
2018-06-08T05:44:47.967Z,71.10
2018-06-08T05:45:48.198Z,67.60
2018-06-08T05:46:47.981Z,69.70
2018-06-08T05:47:47.976Z,69.50
2018-06-08T05:48:47.981Z,68.10
2018-06-08T05:49:47.981Z,67.20
2018-06-08T05:50:48.200Z,66.00
2018-06-08T05:51:48.190Z,71.10
2018-06-08T05:52:48.197Z,71.40
2018-06-08T05:53:48.048Z,64.30
2018-06-08T05:54:48.009Z,64.30
2018-06-08T05:55:48.015Z,63.70
2018-06-08T05:56:48.016Z,63.80
2018-06-08T05:57:48.014Z,60.80
2018-06-08T05:58:48.239Z,56.70
2018-06-08T05:59:48.231Z,54.40
2018-06-08T06:00:48.021Z,56.60
2018-06-08T06:01:48.022Z,55.50
2018-06-08T06:02:48.027Z,56.40
2018-06-08T06:03:48.041Z,59.70
2018-06-08T06:04:48.233Z,61.70
2018-06-08T06:05:48.034Z,62.50
2018-06-08T06:06:48.253Z,58.60
2018-06-08T06:07:48.242Z,54.30
2018-06-08T06:08:48.044Z,56.40
2018-06-08T06:09:48.052Z,55.00
2018-06-08T06:10:48.253Z,54.10
2018-06-08T06:11:48.255Z,54.90
2018-06-08T06:12:48.057Z,55.20
2018-06-08T06:13:48.262Z,51.40
2018-06-08T06:14:48.062Z,50.40
2018-06-08T06:15:48.064Z,48.30
2018-06-08T06:16:48.069Z,47.50
2018-06-08T06:17:48.072Z,47.70
2018-06-08T06:18:48.075Z,47.00
2018-06-08T06:19:48.075Z,44.90
2018-06-08T06:20:48.285Z,43.30
2018-06-08T06:21:48.084Z,42.90
2018-06-08T06:22:48.088Z,41.70
2018-06-08T06:23:48.290Z,41.30
2018-06-08T06:24:48.106Z,43.80
2018-06-08T06:25:48.094Z,45.10
2018-06-08T06:26:48.098Z,45.10
2018-06-08T06:27:48.101Z,44.30
2018-06-08T06:28:48.113Z,41.70
2018-06-08T06:29:48.121Z,42.80
2018-06-08T06:30:48.125Z,42.00
2018-06-08T06:31:48.127Z,39.50
2018-06-08T06:32:48.318Z,38.10
2018-06-08T06:33:48.335Z,39.10
2018-06-08T06:34:48.136Z,39.40
2018-06-08T06:35:48.137Z,37.70
2018-06-08T06:36:48.138Z,36.50
2018-06-08T06:37:48.344Z,37.00
2018-06-08T06:38:48.340Z,36.40
2018-06-08T06:39:48.341Z,39.00
2018-06-08T06:40:48.139Z,37.10
2018-06-08T06:41:48.346Z,38.80
2018-06-08T06:42:48.159Z,38.50
2018-06-08T06:43:48.178Z,38.00
2018-06-08T06:44:48.166Z,40.90
2018-06-08T06:45:48.170Z,39.90
2018-06-08T06:46:48.360Z,37.70
2018-06-08T06:47:48.375Z,37.70
2018-06-08T06:48:48.165Z,38.60
2018-06-08T06:49:48.177Z,39.30
2018-06-08T06:50:48.168Z,39.70
2018-06-08T06:51:48.190Z,39.70
2018-06-08T06:52:48.193Z,41.30
2018-06-08T06:53:48.179Z,41.10
2018-06-08T06:54:48.195Z,38.70
2018-06-08T06:55:48.386Z,40.00
2018-06-08T06:56:48.197Z,39.90
2018-06-08T06:57:48.202Z,41.10
2018-06-08T06:58:48.225Z,40.90
2018-06-08T06:59:48.411Z,39.90
2018-06-08T07:00:48.209Z,39.30
2018-06-08T07:01:48.202Z,38.50
2018-06-08T07:02:48.203Z,40.00
2018-06-08T07:03:48.420Z,39.20
2018-06-08T07:04:48.209Z,40.20
2018-06-08T07:05:48.225Z,40.60
2018-06-08T07:06:48.414Z,41.30
2018-06-08T07:07:48.230Z,40.20
2018-06-08T07:08:48.425Z,39.10
2018-06-08T07:09:48.237Z,39.70
2018-06-08T07:10:48.225Z,42.40
2018-06-08T07:11:48.239Z,42.40
2018-06-08T07:12:48.303Z,43.70
2018-06-08T07:13:48.252Z,40.90
2018-06-08T07:14:48.235Z,42.10
2018-06-08T07:15:48.240Z,42.50
2018-06-08T07:16:48.242Z,42.10
2018-06-08T07:17:48.248Z,40.80
2018-06-08T07:18:48.295Z,40.50
2018-06-08T07:19:48.267Z,41.90
2018-06-08T07:20:48.266Z,42.40
2018-06-08T07:21:48.472Z,40.40
2018-06-08T07:22:48.272Z,39.30
2018-06-08T07:23:48.264Z,39.30
2018-06-08T07:24:48.479Z,41.70
2018-06-08T07:25:48.268Z,41.80
2018-06-08T07:26:48.303Z,42.10
2018-06-08T07:27:48.276Z,42.80
2018-06-08T07:28:48.279Z,44.70
2018-06-08T07:29:48.495Z,43.70
2018-06-08T07:30:48.297Z,41.90
2018-06-08T07:31:48.673Z,40.50
2018-06-08T07:32:48.294Z,41.90
2018-06-08T07:33:48.320Z,39.00
2018-06-08T07:34:48.311Z,37.10
2018-06-08T07:35:48.328Z,37.40
2018-06-08T07:36:48.304Z,36.80
2018-06-08T07:37:48.508Z,35.30
2018-06-08T07:38:48.307Z,32.60
2018-06-08T07:39:48.518Z,32.30
2018-06-08T07:40:48.528Z,33.80
2018-06-08T07:41:48.330Z,34.30
2018-06-08T07:42:48.334Z,37.60
2018-06-08T07:43:48.325Z,37.10
2018-06-08T07:44:48.327Z,35.60
2018-06-08T07:45:48.340Z,37.00
2018-06-08T07:46:48.392Z,39.20
2018-06-08T07:47:48.537Z,38.50
2018-06-08T07:48:48.337Z,41.30
2018-06-08T07:49:48.341Z,43.60
2018-06-08T07:50:48.346Z,40.80
2018-06-08T07:51:48.349Z,39.90
2018-06-08T07:52:48.364Z,36.10
2018-06-08T07:53:48.395Z,33.80
2018-06-08T07:54:48.359Z,32.00
2018-06-08T07:55:48.565Z,34.30
2018-06-08T07:56:48.373Z,36.70
2018-06-08T07:57:48.375Z,38.10
2018-06-08T07:58:48.368Z,38.80
2018-06-08T07:59:48.371Z,35.70
2018-06-08T08:00:48.379Z,37.70
2018-06-08T08:01:48.406Z,39.00
2018-06-08T08:02:48.390Z,38.00
2018-06-08T08:03:48.412Z,36.90
2018-06-08T08:04:48.405Z,38.50
2018-06-08T08:05:48.392Z,40.40
2018-06-08T08:06:48.395Z,37.70
2018-06-08T08:07:48.403Z,35.80
2018-06-08T08:08:48.628Z,35.60
2018-06-08T08:09:48.402Z,39.60
2018-06-08T08:10:48.406Z,37.90
2018-06-08T08:11:48.421Z,36.70
2018-06-08T08:12:48.427Z,40.60
2018-06-08T08:13:48.620Z,38.40
2018-06-08T08:14:48.632Z,36.40
2018-06-08T08:15:48.438Z,37.70
2018-06-08T08:16:48.425Z,40.60
2018-06-08T08:17:48.430Z,40.80
2018-06-08T08:18:48.443Z,36.30
2018-06-08T08:19:48.439Z,39.30
2018-06-08T08:20:48.436Z,42.60
2018-06-08T08:21:48.442Z,41.10
2018-06-08T08:22:48.444Z,41.90
2018-06-08T08:23:48.464Z,40.50
2018-06-08T08:24:48.668Z,40.80
2018-06-08T08:25:48.462Z,42.30
2018-06-08T08:26:48.467Z,40.80
2018-06-08T08:27:48.675Z,39.00
2018-06-08T08:28:48.472Z,38.70
2018-06-08T08:29:48.675Z,41.00
2018-06-08T08:30:48.484Z,42.30
2018-06-08T08:31:48.487Z,41.50
2018-06-08T08:32:48.506Z,42.70
2018-06-08T08:33:48.492Z,43.00
2018-06-08T08:34:48.484Z,42.50
2018-06-08T08:35:48.499Z,43.30
2018-06-08T08:36:48.487Z,43.50
2018-06-08T08:37:48.508Z,42.00
2018-06-08T08:38:48.504Z,42.50
2018-06-08T08:39:48.496Z,45.40
2018-06-08T08:40:48.501Z,46.90
2018-06-08T08:41:48.503Z,54.10
2018-06-08T08:42:48.513Z,56.10
2018-06-08T08:43:48.508Z,56.30
2018-06-08T08:44:48.512Z,55.40
2018-06-08T08:45:48.516Z,56.40
2018-06-08T08:46:48.516Z,56.30
2018-06-08T08:47:48.520Z,49.50
2018-06-08T08:48:48.724Z,49.30
2018-06-08T08:49:48.539Z,46.40
2018-06-08T08:50:48.542Z,44.40
2018-06-08T08:51:48.735Z,44.20
2018-06-08T08:52:48.535Z,48.10
2018-06-08T08:53:48.561Z,46.30
2018-06-08T08:54:48.538Z,43.50
2018-06-08T08:55:48.554Z,43.00
2018-06-08T08:56:48.599Z,44.50
2018-06-08T08:57:48.563Z,40.50
2018-06-08T08:58:48.755Z,40.20
2018-06-08T08:59:48.566Z,41.20
2018-06-08T09:00:48.569Z,40.90
2018-06-08T09:01:48.561Z,39.80
2018-06-08T09:02:48.576Z,40.70
2018-06-08T09:03:48.577Z,40.90
2018-06-08T09:04:48.783Z,38.40
2018-06-08T09:05:48.775Z,36.20
2018-06-08T09:06:48.776Z,35.30
2018-06-08T09:07:48.576Z,36.20
2018-06-08T09:08:48.581Z,35.30
2018-06-08T09:09:48.812Z,36.80
2018-06-08T09:10:48.585Z,33.70
2018-06-08T09:11:48.804Z,31.80
2018-06-08T09:12:48.600Z,31.40
2018-06-08T09:13:48.615Z,33.80
2018-06-08T09:14:48.606Z,33.00
2018-06-08T09:15:48.601Z,34.40
2018-06-08T09:16:48.632Z,32.30
2018-06-08T09:17:48.621Z,33.70
2018-06-08T09:18:48.611Z,32.10
2018-06-08T09:19:48.620Z,32.50
2018-06-08T09:20:48.614Z,34.30
2018-06-08T09:21:48.620Z,33.90
2018-06-08T09:22:48.825Z,34.20
2018-06-08T09:23:48.631Z,34.20
2018-06-08T09:24:48.829Z,33.10
2018-06-08T09:25:48.640Z,35.40
2018-06-08T09:26:48.640Z,36.20
2018-06-08T09:27:48.634Z,37.20
2018-06-08T09:28:48.637Z,37.60
2018-06-08T09:29:48.654Z,36.00
2018-06-08T09:30:48.845Z,37.60
2018-06-08T09:31:48.656Z,40.10
2018-06-08T09:32:48.661Z,40.30
2018-06-08T09:33:48.867Z,41.40
2018-06-08T09:34:48.655Z,40.30
2018-06-08T09:35:48.669Z,41.10
2018-06-08T09:36:48.672Z,42.70
2018-06-08T09:37:48.665Z,42.10
2018-06-08T09:38:48.676Z,43.40
2018-06-08T09:39:48.669Z,48.20
2018-06-08T09:40:48.892Z,46.50
2018-06-08T09:41:48.685Z,48.20
2018-06-08T09:42:48.700Z,48.60
2018-06-08T09:43:48.680Z,48.20
2018-06-08T09:44:48.682Z,48.20
2018-06-08T09:45:48.699Z,49.00
2018-06-08T09:46:48.692Z,47.30
2018-06-08T09:47:48.908Z,48.50
2018-06-08T09:48:48.695Z,49.50
2018-06-08T09:49:48.930Z,51.40
2018-06-08T09:50:48.714Z,51.80
2018-06-08T09:51:48.703Z,49.80
2018-06-08T09:52:48.707Z,49.10
2018-06-08T09:53:48.937Z,50.50
2018-06-08T09:54:48.774Z,51.00
2018-06-08T09:55:48.727Z,51.10
2018-06-08T09:56:48.731Z,50.60
2018-06-08T09:57:48.934Z,53.40
2018-06-08T09:58:48.735Z,51.50
2018-06-08T09:59:48.928Z,50.80
2018-06-08T10:00:48.730Z,50.70
2018-06-08T10:01:48.747Z,50.80
2018-06-08T10:02:48.744Z,49.30
2018-06-08T10:03:48.741Z,49.50
2018-06-08T10:04:48.741Z,49.80
2018-06-08T10:05:48.741Z,49.70
2018-06-08T10:06:48.946Z,49.70
2018-06-08T10:07:48.750Z,49.70
2018-06-08T10:08:48.756Z,45.90
2018-06-08T10:09:48.956Z,44.50
2018-06-08T10:10:48.792Z,45.60
2018-06-08T10:11:48.973Z,45.30
2018-06-08T10:12:48.771Z,45.50
2018-06-08T10:13:48.984Z,44.60
2018-06-08T10:14:48.769Z,44.90
2018-06-08T10:15:48.789Z,43.60
2018-06-08T10:16:48.789Z,40.20
2018-06-08T10:17:48.979Z,39.20
2018-06-08T10:18:48.793Z,39.50
2018-06-08T10:19:48.999Z,38.90
2018-06-08T10:20:48.797Z,37.90
2018-06-08T10:21:48.787Z,35.40
2018-06-08T10:22:48.810Z,35.20
2018-06-08T10:23:48.993Z,35.00
2018-06-08T10:24:48.796Z,34.30
2018-06-08T10:25:48.796Z,32.70
2018-06-08T10:26:48.816Z,32.30
2018-06-08T10:27:49.004Z,32.70
2018-06-08T10:28:49.009Z,32.80
2018-06-08T10:29:48.843Z,31.50
2018-06-08T10:30:48.811Z,32.90
2018-06-08T10:31:49.028Z,32.60
2018-06-08T10:32:49.019Z,32.90
2018-06-08T10:33:48.821Z,33.30
2018-06-08T10:34:49.040Z,32.70
2018-06-08T10:35:48.829Z,33.00
2018-06-08T10:36:48.841Z,33.60
2018-06-08T10:37:48.853Z,33.00
2018-06-08T10:38:48.832Z,33.20
2018-06-08T10:39:48.844Z,33.40
2018-06-08T10:40:48.839Z,32.90
2018-06-08T10:41:49.046Z,32.10
2018-06-08T10:42:49.054Z,33.80
2018-06-08T10:43:48.867Z,33.00
2018-06-08T10:44:48.850Z,33.70
2018-06-08T10:45:48.861Z,34.40
2018-06-08T10:46:48.870Z,32.60
2018-06-08T10:47:49.059Z,32.70
2018-06-08T10:48:48.860Z,33.30
2018-06-08T10:49:48.876Z,32.60
2018-06-08T10:50:48.866Z,33.70
2018-06-08T10:51:48.881Z,33.50
2018-06-08T10:52:48.870Z,32.20
2018-06-08T10:53:49.085Z,34.30
2018-06-08T10:54:48.873Z,33.70
2018-06-08T10:55:49.103Z,33.70
2018-06-08T10:56:48.879Z,34.90
2018-06-08T10:57:48.881Z,35.50
2018-06-08T10:58:48.887Z,35.60
2018-06-08T10:59:48.898Z,35.40
2018-06-08T11:00:48.903Z,37.20
2018-06-08T11:01:49.099Z,37.80
2018-06-08T11:02:48.896Z,38.70
2018-06-08T11:03:48.899Z,39.10
2018-06-08T11:04:48.903Z,39.70
2018-06-08T11:05:48.917Z,39.00
2018-06-08T11:06:49.108Z,39.70
2018-06-08T11:07:48.910Z,40.20
2018-06-08T11:08:49.134Z,40.00
2018-06-08T11:09:48.927Z,39.70
2018-06-08T11:10:48.917Z,41.00
2018-06-08T11:11:48.940Z,41.30
2018-06-08T11:12:48.941Z,41.50
2018-06-08T11:13:48.930Z,42.00
2018-06-08T11:14:48.938Z,42.50
2018-06-08T11:15:48.945Z,43.00
2018-06-08T11:16:49.146Z,43.40
2018-06-08T11:17:49.137Z,43.30
2018-06-08T11:18:49.151Z,43.50
2018-06-08T11:19:48.976Z,43.20
2018-06-08T11:20:48.964Z,43.30
2018-06-08T11:21:48.949Z,44.10
2018-06-08T11:22:48.958Z,43.90
2018-06-08T11:23:49.187Z,43.10
2018-06-08T11:24:48.971Z,44.80
2018-06-08T11:25:48.972Z,44.10
2018-06-08T11:26:48.962Z,43.30
2018-06-08T11:27:48.973Z,43.70
2018-06-08T11:28:48.981Z,43.00
2018-06-08T11:29:48.983Z,44.70
2018-06-08T11:30:48.969Z,45.40
2018-06-08T11:31:48.973Z,43.00
2018-06-08T11:32:48.980Z,43.90
2018-06-08T11:33:49.007Z,42.80
2018-06-08T11:34:49.182Z,43.60
2018-06-08T11:35:48.989Z,42.40
2018-06-08T11:36:49.201Z,42.80
2018-06-08T11:37:48.995Z,44.20
2018-06-08T11:38:49.196Z,43.40
2018-06-08T11:39:48.995Z,42.90
2018-06-08T11:40:49.002Z,43.60
2018-06-08T11:41:48.999Z,44.80
2018-06-08T11:42:49.036Z,40.90
2018-06-08T11:43:49.018Z,42.50
2018-06-08T11:44:49.225Z,44.70
2018-06-08T11:45:49.080Z,42.40
2018-06-08T11:46:49.044Z,42.90
2018-06-08T11:47:49.048Z,42.20
2018-06-08T11:48:49.245Z,43.20
2018-06-08T11:49:49.045Z,41.50
2018-06-08T11:50:49.025Z,41.40
2018-06-08T11:51:49.253Z,42.00
2018-06-08T11:52:49.048Z,42.00
2018-06-08T11:53:49.064Z,42.00
2018-06-08T11:54:49.042Z,39.80
2018-06-08T11:55:49.253Z,40.20
2018-06-08T11:56:49.050Z,40.90
2018-06-08T11:57:49.051Z,39.90
2018-06-08T11:58:49.047Z,40.90
2018-06-08T11:59:49.048Z,40.60
2018-06-08T12:00:49.050Z,39.00
2018-06-08T12:01:49.139Z,38.10
2018-06-08T12:02:49.272Z,36.50
2018-06-08T12:03:49.068Z,37.20
2018-06-08T12:04:49.078Z,37.80
2018-06-08T12:05:49.063Z,39.90
2018-06-08T12:06:49.077Z,40.40
2018-06-08T12:07:49.102Z,40.90
2018-06-08T12:08:49.096Z,42.10
2018-06-08T12:09:49.073Z,42.00
2018-06-08T12:10:49.280Z,42.60
2018-06-08T12:11:49.083Z,44.10
2018-06-08T12:12:49.083Z,43.90
2018-06-08T12:13:49.097Z,46.80
2018-06-08T12:14:49.088Z,46.00
2018-06-08T12:15:49.292Z,46.50
2018-06-08T12:16:49.118Z,49.90
2018-06-08T12:17:49.333Z,49.50
2018-06-08T12:18:49.096Z,49.40
2018-06-08T12:19:49.304Z,49.50
2018-06-08T12:20:49.114Z,48.60
2018-06-08T12:21:49.116Z,48.70
2018-06-08T12:22:49.108Z,52.30
2018-06-08T12:23:49.116Z,53.00
2018-06-08T12:24:49.319Z,52.50
2018-06-08T12:25:49.118Z,53.30
2018-06-08T12:26:49.323Z,53.70
2018-06-08T12:27:49.136Z,53.40
2018-06-08T12:28:49.172Z,54.60
2018-06-08T12:29:49.329Z,53.20
2018-06-08T12:30:49.410Z,56.80
2018-06-08T12:31:49.335Z,56.90
2018-06-08T12:32:49.148Z,55.80
2018-06-08T12:33:49.166Z,59.30
2018-06-08T12:34:49.156Z,59.20
2018-06-08T12:35:49.349Z,61.90
2018-06-08T12:36:49.350Z,60.90
2018-06-08T12:37:49.183Z,59.30
2018-06-08T12:38:49.357Z,60.30
2018-06-08T12:39:49.155Z,62.90
2018-06-08T12:40:49.185Z,63.40
2018-06-08T12:41:49.394Z,65.10
2018-06-08T12:42:49.161Z,65.30
2018-06-08T12:43:49.167Z,66.30
2018-06-08T12:44:49.188Z,67.70
2018-06-08T12:45:49.388Z,69.40
2018-06-08T12:46:49.227Z,66.90
2018-06-08T12:47:49.180Z,68.60
2018-06-08T12:48:49.397Z,69.30
2018-06-08T12:49:49.200Z,70.30
2018-06-08T12:50:49.388Z,68.20
2018-06-08T12:51:49.192Z,67.60
2018-06-08T12:52:49.410Z,64.10